createdAt,value
2018-08-12T00:00:48.134Z,0.00
2018-08-12T00:01:48.133Z,0.00
2018-08-12T00:02:48.135Z,0.00
2018-08-12T00:03:48.129Z,0.00
2018-08-12T00:04:48.129Z,0.00
2018-08-12T00:05:48.126Z,0.00
2018-08-12T00:06:48.125Z,0.00
2018-08-12T00:07:48.124Z,0.00
2018-08-12T00:08:48.124Z,0.00
2018-08-12T00:09:48.121Z,0.00
2018-08-12T00:10:48.120Z,0.00
2018-08-12T00:11:48.119Z,0.00
2018-08-12T00:12:48.117Z,0.00
2018-08-12T00:13:48.116Z,0.00
2018-08-12T00:14:48.114Z,0.00
2018-08-12T00:15:48.114Z,0.00
2018-08-12T00:16:48.112Z,0.00
2018-08-12T00:17:48.110Z,0.00
2018-08-12T00:18:48.108Z,0.00
2018-08-12T00:19:48.107Z,0.00
2018-08-12T00:20:48.107Z,0.00
2018-08-12T00:21:48.104Z,0.00
2018-08-12T00:22:48.104Z,0.00
2018-08-12T00:23:48.102Z,0.00
2018-08-12T00:24:48.101Z,0.00
2018-08-12T00:25:48.098Z,0.00
2018-08-12T00:26:48.100Z,0.00
2018-08-12T00:27:48.095Z,0.00
2018-08-12T00:28:48.094Z,0.00
2018-08-12T00:29:48.096Z,0.00
2018-08-12T00:30:48.092Z,0.00
2018-08-12T00:31:48.091Z,0.00
2018-08-12T00:32:48.091Z,0.00
2018-08-12T00:33:48.088Z,0.00
2018-08-12T00:34:48.086Z,0.00
2018-08-12T00:35:48.083Z,0.00
2018-08-12T00:36:48.084Z,0.00
2018-08-12T00:37:48.079Z,0.00
2018-08-12T00:38:48.081Z,0.00
2018-08-12T00:39:48.078Z,0.00
2018-08-12T00:40:48.077Z,0.00
2018-08-12T00:41:48.074Z,0.00
2018-08-12T00:42:48.072Z,0.00
2018-08-12T00:43:48.072Z,0.00
2018-08-12T00:44:48.074Z,0.00
2018-08-12T00:45:48.069Z,0.00
2018-08-12T00:46:48.067Z,0.00
2018-08-12T00:47:48.066Z,0.00
2018-08-12T00:48:48.072Z,0.00
2018-08-12T00:49:48.061Z,0.00
2018-08-12T00:50:48.059Z,0.00
2018-08-12T00:51:48.059Z,0.00
2018-08-12T00:52:48.056Z,0.00
2018-08-12T00:53:48.055Z,0.00
2018-08-12T00:54:48.053Z,0.00
2018-08-12T00:55:48.056Z,0.00
2018-08-12T00:56:48.051Z,0.00
2018-08-12T00:57:48.049Z,0.00
2018-08-12T00:58:48.047Z,0.00
2018-08-12T00:59:48.045Z,0.00
2018-08-12T01:00:48.043Z,0.00
2018-08-12T01:01:48.040Z,0.00
2018-08-12T01:02:48.039Z,0.00
2018-08-12T01:03:48.037Z,0.00
2018-08-12T01:04:48.036Z,0.00
2018-08-12T01:05:48.034Z,0.00
2018-08-12T01:06:48.032Z,0.00
2018-08-12T01:07:48.031Z,0.00
2018-08-12T01:08:48.028Z,0.00
2018-08-12T01:09:48.025Z,0.00
2018-08-12T01:10:48.026Z,0.00
2018-08-12T01:11:48.022Z,0.00
2018-08-12T01:12:48.020Z,0.00
2018-08-12T01:13:48.018Z,0.00
2018-08-12T01:14:48.017Z,0.00
2018-08-12T01:15:48.014Z,0.00
2018-08-12T01:16:48.012Z,0.00
2018-08-12T01:17:48.009Z,0.00
2018-08-12T01:18:48.009Z,0.00
2018-08-12T01:19:48.006Z,0.00
2018-08-12T01:20:48.003Z,0.00
2018-08-12T01:21:48.001Z,0.00
2018-08-12T01:22:48.000Z,0.00
2018-08-12T01:23:48.000Z,0.00
2018-08-12T01:24:47.996Z,0.00
2018-08-12T01:25:47.992Z,0.00
2018-08-12T01:26:47.994Z,0.00
2018-08-12T01:27:47.989Z,0.00
2018-08-12T01:28:47.986Z,0.00
2018-08-12T01:29:47.985Z,0.00
2018-08-12T01:30:47.983Z,0.00
2018-08-12T01:31:47.979Z,0.00
2018-08-12T01:32:47.979Z,0.00
2018-08-12T01:33:47.976Z,0.00
2018-08-12T01:34:47.973Z,0.00
2018-08-12T01:35:47.984Z,0.00
2018-08-12T01:36:47.970Z,0.00
2018-08-12T01:37:47.967Z,0.00
2018-08-12T01:38:47.965Z,0.00
2018-08-12T01:39:47.962Z,0.00
2018-08-12T01:40:47.961Z,0.00
2018-08-12T01:41:47.957Z,0.00
2018-08-12T01:42:47.961Z,0.00
2018-08-12T01:43:47.956Z,0.00
2018-08-12T01:44:47.952Z,0.00
2018-08-12T01:45:47.951Z,0.00
2018-08-12T01:46:47.945Z,0.00
2018-08-12T01:47:47.944Z,0.00
2018-08-12T01:48:47.942Z,0.00
2018-08-12T01:49:47.939Z,0.00
2018-08-12T01:50:47.935Z,0.00
2018-08-12T01:51:47.934Z,0.00
2018-08-12T01:52:47.932Z,0.00
2018-08-12T01:53:47.928Z,0.00
2018-08-12T01:54:47.926Z,0.00
2018-08-12T01:55:47.924Z,0.00
2018-08-12T01:56:47.923Z,0.00
2018-08-12T01:57:47.918Z,0.00
2018-08-12T01:58:47.925Z,0.00
2018-08-12T01:59:47.918Z,0.00
2018-08-12T02:00:47.913Z,0.00
2018-08-12T02:01:47.909Z,0.00
2018-08-12T02:02:47.906Z,0.00
2018-08-12T02:03:47.904Z,0.00
2018-08-12T02:04:47.902Z,0.00
2018-08-12T02:05:47.900Z,0.00
2018-08-12T02:06:47.897Z,0.00
2018-08-12T02:07:47.894Z,0.00
2018-08-12T02:08:47.893Z,0.00
2018-08-12T02:09:47.890Z,0.00
2018-08-12T02:10:47.886Z,0.00
2018-08-12T02:11:47.884Z,0.00
2018-08-12T02:12:47.883Z,0.00
2018-08-12T02:13:47.879Z,0.00
2018-08-12T02:14:47.878Z,0.00
2018-08-12T02:15:47.874Z,0.00
2018-08-12T02:16:47.873Z,0.00
2018-08-12T02:17:47.868Z,0.00
2018-08-12T02:18:47.867Z,0.00
2018-08-12T02:19:47.866Z,0.00
2018-08-12T02:20:47.862Z,0.00
2018-08-12T02:21:47.859Z,0.00
2018-08-12T02:22:47.857Z,0.00
2018-08-12T02:23:47.855Z,0.00
2018-08-12T02:24:47.852Z,0.00
2018-08-12T02:25:47.849Z,0.00
2018-08-12T02:26:47.847Z,0.00
2018-08-12T02:27:47.843Z,0.00
2018-08-12T02:28:47.841Z,0.00
2018-08-12T02:29:47.839Z,0.00
2018-08-12T02:30:47.836Z,0.00
2018-08-12T02:31:47.833Z,0.00
2018-08-12T02:32:47.831Z,0.00
2018-08-12T02:33:47.829Z,0.00
2018-08-12T02:34:47.826Z,0.00
2018-08-12T02:35:47.822Z,0.00
2018-08-12T02:36:47.820Z,0.00
2018-08-12T02:37:47.818Z,0.00
2018-08-12T02:38:47.816Z,0.00
2018-08-12T02:39:47.812Z,0.00
2018-08-12T02:40:47.811Z,0.00
2018-08-12T02:41:47.811Z,0.00
2018-08-12T02:42:47.804Z,0.00
2018-08-12T02:43:47.803Z,0.00
2018-08-12T02:44:47.801Z,0.00
2018-08-12T02:45:47.796Z,0.00
2018-08-12T02:46:47.794Z,0.00
2018-08-12T02:47:47.791Z,0.00
2018-08-12T02:48:47.788Z,0.00
2018-08-12T02:49:47.792Z,0.00
2018-08-12T02:50:47.783Z,0.00
2018-08-12T02:51:47.780Z,0.00
2018-08-12T02:52:47.778Z,0.00
2018-08-12T02:53:47.774Z,0.00
2018-08-12T02:54:47.773Z,0.00
2018-08-12T02:55:47.771Z,0.00
2018-08-12T02:56:47.768Z,0.00
2018-08-12T02:57:47.775Z,0.00
2018-08-12T02:58:47.761Z,0.00
2018-08-12T02:59:47.759Z,0.00
2018-08-12T03:00:47.757Z,0.00
2018-08-12T03:01:47.760Z,0.00
2018-08-12T03:02:47.751Z,0.00
2018-08-12T03:03:47.753Z,0.00
2018-08-12T03:04:47.745Z,0.00
2018-08-12T03:05:47.740Z,0.00
2018-08-12T03:06:47.738Z,0.00
2018-08-12T03:07:47.737Z,0.00
2018-08-12T03:08:47.734Z,0.00
2018-08-12T03:09:47.730Z,0.00
2018-08-12T03:10:47.727Z,0.00
2018-08-12T03:11:47.726Z,0.00
2018-08-12T03:12:47.729Z,0.00
2018-08-12T03:13:47.718Z,0.00
2018-08-12T03:14:47.715Z,0.00
2018-08-12T03:15:47.713Z,0.00
2018-08-12T03:16:47.714Z,0.00
2018-08-12T03:17:47.707Z,0.00
2018-08-12T03:18:47.707Z,0.00
2018-08-12T03:19:47.701Z,0.00
2018-08-12T03:20:47.699Z,0.00
2018-08-12T03:21:47.699Z,0.00
2018-08-12T03:22:47.694Z,0.00
2018-08-12T03:23:47.691Z,0.00
2018-08-12T03:24:47.686Z,0.00
2018-08-12T03:25:47.687Z,0.00
2018-08-12T03:26:47.689Z,0.00
2018-08-12T03:27:47.679Z,0.00
2018-08-12T03:28:47.676Z,0.00
2018-08-12T03:29:47.671Z,0.00
2018-08-12T03:30:47.670Z,0.00
2018-08-12T03:31:47.668Z,0.00
2018-08-12T03:32:47.663Z,0.00
2018-08-12T03:33:47.660Z,0.00
2018-08-12T03:34:47.658Z,0.00
2018-08-12T03:35:47.655Z,0.00
2018-08-12T03:36:47.653Z,0.00
2018-08-12T03:37:47.648Z,0.00
2018-08-12T03:38:47.648Z,0.00
2018-08-12T03:39:47.647Z,0.00
2018-08-12T03:40:47.640Z,0.00
2018-08-12T03:41:47.642Z,0.00
2018-08-12T03:42:47.635Z,0.00
2018-08-12T03:43:47.631Z,0.00
2018-08-12T03:44:47.628Z,0.00
2018-08-12T03:45:47.624Z,0.00
2018-08-12T03:46:47.621Z,0.00
2018-08-12T03:47:47.619Z,0.00
2018-08-12T03:48:47.638Z,0.00
2018-08-12T03:49:47.613Z,0.00
2018-08-12T03:50:47.609Z,0.00
2018-08-12T03:51:47.607Z,0.00
2018-08-12T03:52:47.605Z,0.00
2018-08-12T03:53:47.601Z,0.00
2018-08-12T03:54:47.597Z,0.00
2018-08-12T03:55:47.595Z,0.00
2018-08-12T03:56:47.593Z,0.00
2018-08-12T03:57:47.590Z,0.00
2018-08-12T03:58:47.590Z,0.00
2018-08-12T03:59:47.587Z,0.00
2018-08-12T04:00:47.581Z,0.00
2018-08-12T04:01:47.577Z,0.00
2018-08-12T04:02:47.575Z,0.00
2018-08-12T04:03:47.572Z,0.00
2018-08-12T04:04:47.570Z,0.00
2018-08-12T04:05:47.565Z,5.63
2018-08-12T04:06:47.563Z,5.63
2018-08-12T04:07:47.560Z,5.63
2018-08-12T04:08:47.557Z,5.63
2018-08-12T04:09:47.553Z,5.63
2018-08-12T04:10:47.551Z,5.63
2018-08-12T04:11:47.548Z,5.63
2018-08-12T04:12:47.546Z,5.63
2018-08-12T04:13:47.541Z,11.25
2018-08-12T04:14:47.538Z,11.25
2018-08-12T04:15:47.537Z,11.25
2018-08-12T04:16:47.534Z,11.25
2018-08-12T04:17:47.535Z,11.25
2018-08-12T04:18:47.527Z,16.88
2018-08-12T04:19:47.524Z,16.88
2018-08-12T04:20:47.523Z,16.88
2018-08-12T04:21:47.518Z,16.88
2018-08-12T04:22:47.517Z,16.88
2018-08-12T04:23:47.514Z,22.50
2018-08-12T04:24:47.511Z,22.50
2018-08-12T04:25:47.506Z,22.50
2018-08-12T04:26:47.503Z,28.13
2018-08-12T04:27:47.501Z,28.13
2018-08-12T04:28:47.500Z,28.13
2018-08-12T04:29:47.496Z,33.75
2018-08-12T04:30:47.493Z,33.75
2018-08-12T04:31:47.493Z,33.75
2018-08-12T04:32:47.488Z,39.38
2018-08-12T04:33:47.484Z,39.38
2018-08-12T04:34:47.482Z,45.00
2018-08-12T04:35:47.478Z,45.00
2018-08-12T04:36:47.477Z,45.00
2018-08-12T04:37:47.472Z,50.63
2018-08-12T04:38:47.469Z,50.63
2018-08-12T04:39:47.469Z,56.25
2018-08-12T04:40:47.463Z,56.25
2018-08-12T04:41:47.460Z,56.25
2018-08-12T04:42:47.459Z,61.88
2018-08-12T04:43:47.456Z,67.50
2018-08-12T04:44:47.453Z,73.13
2018-08-12T04:45:47.448Z,73.13
2018-08-12T04:46:47.446Z,73.13
2018-08-12T04:47:47.445Z,78.75
2018-08-12T04:48:47.440Z,84.38
2018-08-12T04:49:47.438Z,84.38
2018-08-12T04:50:47.435Z,90.00
2018-08-12T04:51:47.437Z,90.00
2018-08-12T04:52:47.430Z,95.63
2018-08-12T04:53:47.426Z,95.63
2018-08-12T04:54:47.425Z,101.25
2018-08-12T04:55:47.423Z,101.25
2018-08-12T04:56:47.419Z,101.25
2018-08-12T04:57:47.416Z,101.25
2018-08-12T04:58:47.413Z,95.63
2018-08-12T04:59:47.412Z,95.63
2018-08-12T05:00:47.410Z,101.25
2018-08-12T05:01:47.406Z,90.00
2018-08-12T05:02:47.404Z,95.63
2018-08-12T05:03:47.402Z,95.63
2018-08-12T05:04:47.400Z,95.63
2018-08-12T05:05:47.396Z,101.25
2018-08-12T05:06:47.395Z,106.88
2018-08-12T05:07:47.393Z,112.50
2018-08-12T05:08:47.391Z,123.75
2018-08-12T05:09:47.388Z,129.38
2018-08-12T05:10:47.384Z,135.00
2018-08-12T05:11:47.383Z,146.25
2018-08-12T05:12:47.381Z,151.88
2018-08-12T05:13:47.377Z,157.50
2018-08-12T05:14:47.376Z,168.75
2018-08-12T05:15:47.375Z,174.38
2018-08-12T05:16:47.372Z,174.38
2018-08-12T05:17:47.370Z,180.00
2018-08-12T05:18:47.368Z,196.88
2018-08-12T05:19:47.372Z,196.88
2018-08-12T05:20:47.363Z,208.13
2018-08-12T05:21:47.362Z,208.13
2018-08-12T05:22:47.360Z,208.13
2018-08-12T05:23:47.358Z,202.50
2018-08-12T05:24:47.356Z,202.50
2018-08-12T05:25:47.355Z,196.88
2018-08-12T05:26:47.352Z,202.50
2018-08-12T05:27:47.350Z,208.13
2018-08-12T05:28:47.350Z,208.13
2018-08-12T05:29:47.347Z,208.13
2018-08-12T05:30:47.346Z,202.50
2018-08-12T05:31:47.345Z,196.88
2018-08-12T05:32:47.343Z,191.25
2018-08-12T05:33:47.340Z,191.25
2018-08-12T05:34:47.338Z,185.63
2018-08-12T05:35:47.339Z,185.63
2018-08-12T05:36:47.337Z,185.63
2018-08-12T05:37:47.334Z,185.63
2018-08-12T05:38:47.334Z,185.63
2018-08-12T05:39:47.335Z,191.25
2018-08-12T05:40:47.331Z,196.88
2018-08-12T05:41:47.329Z,202.50
2018-08-12T05:42:47.329Z,208.13
2018-08-12T05:43:47.327Z,213.75
2018-08-12T05:44:47.327Z,219.38
2018-08-12T05:45:47.325Z,225.00
2018-08-12T05:46:47.323Z,230.63
2018-08-12T05:47:47.324Z,225.00
2018-08-12T05:48:47.322Z,230.63
2018-08-12T05:49:47.319Z,219.38
2018-08-12T05:50:47.319Z,219.38
2018-08-12T05:51:47.323Z,213.75
2018-08-12T05:52:47.317Z,213.75
2018-08-12T05:53:47.315Z,213.75
2018-08-12T05:54:47.319Z,208.13
2018-08-12T05:55:47.314Z,213.75
2018-08-12T05:56:47.314Z,213.75
2018-08-12T05:57:47.313Z,213.75
2018-08-12T05:58:47.311Z,219.38
2018-08-12T05:59:47.311Z,219.38
2018-08-12T06:00:47.312Z,219.38
2018-08-12T06:01:47.311Z,230.63
2018-08-12T06:02:47.362Z,225.00
2018-08-12T06:03:47.308Z,230.63
2018-08-12T06:04:47.306Z,236.25
2018-08-12T06:05:47.307Z,236.25
2018-08-12T06:06:47.305Z,241.88
2018-08-12T06:07:47.305Z,247.50
2018-08-12T06:08:47.345Z,253.13
2018-08-12T06:09:47.303Z,258.75
2018-08-12T06:10:47.305Z,258.75
2018-08-12T06:11:47.305Z,264.38
2018-08-12T06:12:47.301Z,264.38
2018-08-12T06:13:47.300Z,264.38
2018-08-12T06:14:47.301Z,270.00
2018-08-12T06:15:47.299Z,270.00
2018-08-12T06:16:47.299Z,275.63
2018-08-12T06:17:47.300Z,270.00
2018-08-12T06:18:47.298Z,264.38
2018-08-12T06:19:47.296Z,264.38
2018-08-12T06:20:47.298Z,264.38
2018-08-12T06:21:47.295Z,258.75
2018-08-12T06:22:47.296Z,258.75
2018-08-12T06:23:47.298Z,258.75
2018-08-12T06:24:47.295Z,264.38
2018-08-12T06:25:47.313Z,264.38
2018-08-12T06:26:47.295Z,258.75
2018-08-12T06:27:47.294Z,253.13
2018-08-12T06:28:47.295Z,253.13
2018-08-12T06:29:47.294Z,241.88
2018-08-12T06:30:47.294Z,236.25
2018-08-12T06:31:47.294Z,225.00
2018-08-12T06:32:47.294Z,213.75
2018-08-12T06:33:47.293Z,213.75
2018-08-12T06:34:47.293Z,208.13
2018-08-12T06:35:47.292Z,202.50
2018-08-12T06:36:47.293Z,202.50
2018-08-12T06:37:47.291Z,208.13
2018-08-12T06:38:47.293Z,208.13
2018-08-12T06:39:47.301Z,208.13
2018-08-12T06:40:47.292Z,202.50
2018-08-12T06:41:47.292Z,202.50
2018-08-12T06:42:47.291Z,196.88
2018-08-12T06:43:47.293Z,196.88
2018-08-12T06:44:47.291Z,191.25
2018-08-12T06:45:47.291Z,191.25
2018-08-12T06:46:47.291Z,191.25
2018-08-12T06:47:47.295Z,191.25
2018-08-12T06:48:47.292Z,196.88
2018-08-12T06:49:47.291Z,196.88
2018-08-12T06:50:47.291Z,202.50
2018-08-12T06:51:47.362Z,202.50
2018-08-12T06:52:47.291Z,208.13
2018-08-12T06:53:47.292Z,208.13
2018-08-12T06:54:47.291Z,225.00
2018-08-12T06:55:47.291Z,247.50
2018-08-12T06:56:47.296Z,281.25
2018-08-12T06:57:47.291Z,326.25
2018-08-12T06:58:47.292Z,365.63
2018-08-12T06:59:47.291Z,376.88
2018-08-12T07:00:47.292Z,405.00
2018-08-12T07:01:47.293Z,455.63
2018-08-12T07:02:47.293Z,517.50
2018-08-12T07:03:47.292Z,556.88
2018-08-12T07:04:47.293Z,551.25
2018-08-12T07:05:47.293Z,540.00
2018-08-12T07:06:47.295Z,528.75
2018-08-12T07:07:47.294Z,517.50
2018-08-12T07:08:47.297Z,511.88
2018-08-12T07:09:47.296Z,500.63
2018-08-12T07:10:47.298Z,500.63
2018-08-12T07:11:47.298Z,511.88
2018-08-12T07:12:47.300Z,540.00
2018-08-12T07:13:47.300Z,585.00
2018-08-12T07:14:47.302Z,596.25
2018-08-12T07:15:47.302Z,585.00
2018-08-12T07:16:47.305Z,562.50
2018-08-12T07:17:47.305Z,540.00
2018-08-12T07:18:47.307Z,517.50
2018-08-12T07:19:47.310Z,500.63
2018-08-12T07:20:47.311Z,489.38
2018-08-12T07:21:47.314Z,483.75
2018-08-12T07:22:47.315Z,489.38
2018-08-12T07:23:47.320Z,506.25
2018-08-12T07:24:47.338Z,540.00
2018-08-12T07:25:47.320Z,573.75
2018-08-12T07:26:47.324Z,618.75
2018-08-12T07:27:47.327Z,646.88
2018-08-12T07:28:47.329Z,658.13
2018-08-12T07:29:47.331Z,630.00
2018-08-12T07:30:47.334Z,624.38
2018-08-12T07:31:47.336Z,618.75
2018-08-12T07:32:47.343Z,613.13
2018-08-12T07:33:47.342Z,596.25
2018-08-12T07:34:47.344Z,596.25
2018-08-12T07:35:47.347Z,601.88
2018-08-12T07:36:47.351Z,630.00
2018-08-12T07:37:47.359Z,630.00
2018-08-12T07:38:47.381Z,652.50
2018-08-12T07:39:47.361Z,680.63
2018-08-12T07:40:47.364Z,720.00
2018-08-12T07:41:47.367Z,742.50
2018-08-12T07:42:47.370Z,742.50
2018-08-12T07:43:47.374Z,731.25
2018-08-12T07:44:47.379Z,725.63
2018-08-12T07:45:47.381Z,725.63
2018-08-12T07:46:47.386Z,720.00
2018-08-12T07:47:47.392Z,703.13
2018-08-12T07:48:47.446Z,691.88
2018-08-12T07:49:47.396Z,641.25
2018-08-12T07:50:47.401Z,579.38
2018-08-12T07:51:47.405Z,545.63
2018-08-12T07:52:47.410Z,545.63
2018-08-12T07:53:47.412Z,517.50
2018-08-12T07:54:47.418Z,562.50
2018-08-12T07:55:47.496Z,590.63
2018-08-12T07:56:47.427Z,579.38
2018-08-12T07:57:47.429Z,630.00
2018-08-12T07:58:47.435Z,675.00
2018-08-12T07:59:47.439Z,759.38
2018-08-12T08:00:47.443Z,787.50
2018-08-12T08:01:47.447Z,843.75
2018-08-12T08:02:47.453Z,815.63
2018-08-12T08:03:47.457Z,916.88
2018-08-12T08:04:47.462Z,1029.38
2018-08-12T08:05:47.468Z,1018.13
2018-08-12T08:06:47.473Z,1018.13
2018-08-12T08:07:47.477Z,821.25
2018-08-12T08:08:47.481Z,1901.25
2018-08-12T08:09:47.485Z,2041.88
2018-08-12T08:10:47.492Z,3043.13
2018-08-12T08:11:47.496Z,2722.50
2018-08-12T08:12:47.503Z,2160.00
2018-08-12T08:13:47.511Z,2491.88
2018-08-12T08:14:47.513Z,2975.63
2018-08-12T08:15:47.521Z,3037.50
2018-08-12T08:16:47.526Z,3105.00
2018-08-12T08:17:47.533Z,3532.50
2018-08-12T08:18:47.539Z,3510.00
2018-08-12T08:19:47.551Z,3543.75
2018-08-12T08:20:47.556Z,3577.50
2018-08-12T08:21:47.564Z,3515.63
2018-08-12T08:22:47.575Z,3510.00
2018-08-12T08:23:47.581Z,3352.50
2018-08-12T08:24:47.591Z,3386.25
2018-08-12T08:25:47.628Z,3285.00
2018-08-12T08:26:47.609Z,3538.13
2018-08-12T08:27:47.619Z,3228.75
2018-08-12T08:28:47.630Z,3110.63
2018-08-12T08:29:47.643Z,3105.00
2018-08-12T08:30:47.654Z,3391.88
2018-08-12T08:31:47.838Z,3324.38
2018-08-12T08:32:47.678Z,3251.25
2018-08-12T08:33:47.691Z,3431.25
2018-08-12T08:34:47.698Z,3200.63
2018-08-12T08:35:47.712Z,3228.75
2018-08-12T08:36:47.724Z,3161.25
2018-08-12T08:37:47.735Z,3296.25
2018-08-12T08:38:47.755Z,3273.75
2018-08-12T08:39:47.762Z,3262.50
2018-08-12T08:40:47.775Z,3268.13
2018-08-12T08:41:47.787Z,3251.25
2018-08-12T08:42:47.801Z,3476.25
2018-08-12T08:43:47.815Z,3436.88
2018-08-12T08:44:47.829Z,3375.00
2018-08-12T08:45:47.843Z,3543.75
2018-08-12T08:46:47.855Z,3555.00
2018-08-12T08:47:47.869Z,3296.25
2018-08-12T08:48:47.884Z,3285.00
2018-08-12T08:49:47.934Z,3313.13
2018-08-12T08:50:47.935Z,3493.13
2018-08-12T08:51:47.926Z,3391.88
2018-08-12T08:52:47.940Z,3498.75
2018-08-12T08:53:47.955Z,3481.88
2018-08-12T08:54:47.968Z,3313.13
2018-08-12T08:55:48.085Z,3279.38
2018-08-12T08:56:47.998Z,3301.88
2018-08-12T08:57:48.015Z,3313.13
2018-08-12T08:58:48.027Z,3346.88
2018-08-12T08:59:48.042Z,3397.50
2018-08-12T09:00:48.058Z,3335.63
2018-08-12T09:01:48.073Z,3268.13
2018-08-12T09:02:48.087Z,3217.50
2018-08-12T09:03:48.104Z,3166.88
2018-08-12T09:04:48.117Z,3217.50
2018-08-12T09:05:48.132Z,3116.25
2018-08-12T09:06:48.146Z,3206.25
2018-08-12T09:07:48.163Z,3425.63
2018-08-12T09:08:48.274Z,3262.50
2018-08-12T09:09:48.192Z,3183.75
2018-08-12T09:10:48.208Z,3318.75
2018-08-12T09:11:48.223Z,3110.63
2018-08-12T09:12:48.238Z,2964.38
2018-08-12T09:13:48.252Z,3138.75
2018-08-12T09:14:48.269Z,3048.75
2018-08-12T09:15:48.284Z,3015.00
2018-08-12T09:16:48.297Z,2835.00
2018-08-12T09:17:48.312Z,2806.88
2018-08-12T09:18:48.332Z,3020.63
2018-08-12T09:19:48.344Z,2953.13
2018-08-12T09:20:48.358Z,3082.50
2018-08-12T09:21:48.373Z,2947.50
2018-08-12T09:22:48.388Z,2958.75
2018-08-12T09:23:48.403Z,3071.25
2018-08-12T09:24:48.417Z,3065.63
2018-08-12T09:25:48.432Z,3189.38
2018-08-12T09:26:48.449Z,3256.88
2018-08-12T09:27:48.464Z,3189.38
2018-08-12T09:28:48.476Z,3223.13
2018-08-12T09:29:48.495Z,3048.75
2018-08-12T09:30:48.506Z,3195.00
2018-08-12T09:31:48.524Z,2874.38
2018-08-12T09:32:48.536Z,3031.88
2018-08-12T09:33:48.551Z,2356.88
2018-08-12T09:34:48.565Z,2778.75
2018-08-12T09:35:48.580Z,2806.88
2018-08-12T09:36:48.595Z,2863.13
2018-08-12T09:37:48.611Z,2874.38
2018-08-12T09:38:48.624Z,2925.00
2018-08-12T09:39:48.641Z,2835.00
2018-08-12T09:40:48.655Z,2784.38
2018-08-12T09:41:48.670Z,3015.00
2018-08-12T09:42:48.688Z,3015.00
2018-08-12T09:43:48.700Z,3015.00
2018-08-12T09:44:48.715Z,2992.50
2018-08-12T09:45:48.728Z,2908.13
2018-08-12T09:46:48.744Z,2835.00
2018-08-12T09:47:48.759Z,2891.25
2018-08-12T09:48:48.775Z,3003.75
2018-08-12T09:49:48.789Z,3110.63
2018-08-12T09:50:48.803Z,3048.75
2018-08-12T09:51:48.857Z,2986.88
2018-08-12T09:52:48.842Z,2992.50
2018-08-12T09:53:48.849Z,2947.50
2018-08-12T09:54:48.863Z,2998.13
2018-08-12T09:55:48.882Z,2936.25
2018-08-12T09:56:48.897Z,2801.25
2018-08-12T09:57:48.909Z,2925.00
2018-08-12T09:58:48.924Z,2975.63
2018-08-12T09:59:48.941Z,2891.25
2018-08-12T10:00:48.957Z,2790.00
2018-08-12T10:01:48.968Z,2671.88
2018-08-12T10:02:48.984Z,2548.13
2018-08-12T10:03:48.998Z,2525.63
2018-08-12T10:04:49.013Z,2581.88
2018-08-12T10:05:49.027Z,2401.88
2018-08-12T10:06:49.042Z,2188.13
2018-08-12T10:07:49.057Z,2576.25
2018-08-12T10:08:49.074Z,2896.88
2018-08-12T10:09:49.090Z,3031.88
2018-08-12T10:10:49.102Z,3076.88
2018-08-12T10:11:49.117Z,3082.50
2018-08-12T10:12:49.131Z,3448.13
2018-08-12T10:13:49.147Z,4471.88
2018-08-12T10:14:49.159Z,5068.13
2018-08-12T10:15:49.174Z,4719.38
2018-08-12T10:16:49.189Z,4983.75
2018-08-12T10:17:49.205Z,3690.00
2018-08-12T10:18:49.218Z,1226.25
2018-08-12T10:19:49.233Z,1018.13
2018-08-12T10:20:49.248Z,933.75
2018-08-12T10:21:49.263Z,894.38
2018-08-12T10:22:49.279Z,888.75
2018-08-12T10:23:49.294Z,871.88
2018-08-12T10:24:49.307Z,866.25
2018-08-12T10:25:49.321Z,849.38
2018-08-12T10:26:49.338Z,838.13
2018-08-12T10:27:49.352Z,810.00
2018-08-12T10:28:49.367Z,804.38
2018-08-12T10:29:49.385Z,765.00
2018-08-12T10:30:49.397Z,748.13
2018-08-12T10:31:49.410Z,759.38
2018-08-12T10:32:49.426Z,765.00
2018-08-12T10:33:49.439Z,753.75
2018-08-12T10:34:49.458Z,748.13
2018-08-12T10:35:49.471Z,736.88
2018-08-12T10:36:49.487Z,731.25
2018-08-12T10:37:49.499Z,731.25
2018-08-12T10:38:49.513Z,731.25
2018-08-12T10:39:49.532Z,725.63
2018-08-12T10:40:49.545Z,731.25
2018-08-12T10:41:49.560Z,736.88
2018-08-12T10:42:49.572Z,731.25
2018-08-12T10:43:49.595Z,731.25
2018-08-12T10:44:49.601Z,748.13
2018-08-12T10:45:49.618Z,770.63
2018-08-12T10:46:49.631Z,793.13
2018-08-12T10:47:49.644Z,832.50
2018-08-12T10:48:49.659Z,866.25
2018-08-12T10:49:49.674Z,916.88
2018-08-12T10:50:49.743Z,961.88
2018-08-12T10:51:49.703Z,1046.25
2018-08-12T10:52:49.715Z,1091.25
2018-08-12T10:53:49.731Z,1029.38
2018-08-12T10:54:49.745Z,1063.13
2018-08-12T10:55:49.761Z,973.13
2018-08-12T10:56:49.772Z,883.13
2018-08-12T10:57:49.786Z,916.88
2018-08-12T10:58:49.801Z,911.25
2018-08-12T10:59:49.815Z,922.50
2018-08-12T11:00:49.832Z,579.38
2018-08-12T11:01:49.844Z,849.38
2018-08-12T11:02:49.856Z,905.63
2018-08-12T11:03:49.871Z,905.63
2018-08-12T11:04:49.886Z,900.00
2018-08-12T11:05:49.898Z,843.75
2018-08-12T11:06:49.912Z,855.00
2018-08-12T11:07:49.929Z,832.50
2018-08-12T11:08:49.941Z,731.25
2018-08-12T11:09:49.953Z,669.38
2018-08-12T11:10:49.966Z,568.13
2018-08-12T11:11:49.981Z,523.13
2018-08-12T11:12:50.011Z,517.50
2018-08-12T11:13:50.007Z,523.13
2018-08-12T11:14:50.019Z,489.38
2018-08-12T11:15:50.033Z,461.25
2018-08-12T11:16:50.046Z,478.13
2018-08-12T11:17:50.058Z,495.00
2018-08-12T11:18:50.073Z,523.13
2018-08-12T11:19:50.085Z,511.88
2018-08-12T11:20:50.103Z,511.88
2018-08-12T11:21:50.108Z,511.88
2018-08-12T11:22:50.121Z,495.00
2018-08-12T11:23:50.135Z,483.75
2018-08-12T11:24:50.147Z,506.25
2018-08-12T11:25:50.158Z,511.88
2018-08-12T11:26:50.171Z,534.38
2018-08-12T11:29:28.633Z,579.38
2018-08-12T11:30:28.644Z,618.75
2018-08-12T11:31:28.654Z,596.25
2018-08-12T11:32:28.666Z,562.50
2018-08-12T11:33:28.676Z,540.00
2018-08-12T11:34:28.689Z,528.75
2018-08-12T11:35:28.700Z,517.50
2018-08-12T11:36:28.711Z,500.63
2018-08-12T11:37:28.724Z,500.63
2018-08-12T11:38:28.735Z,506.25
2018-08-12T11:39:28.743Z,500.63
2018-08-12T11:40:28.755Z,472.50
2018-08-12T11:41:28.766Z,461.25
2018-08-12T11:42:28.776Z,483.75
2018-08-12T11:43:28.787Z,489.38
2018-08-12T11:44:28.799Z,461.25
2018-08-12T11:45:28.808Z,478.13
2018-08-12T11:47:55.893Z,472.50
2018-08-12T11:48:55.500Z,461.25
2018-08-12T11:49:55.505Z,455.63
2018-08-12T11:50:55.515Z,466.88
2018-08-12T11:51:55.527Z,455.63
2018-08-12T11:52:55.537Z,444.38
2018-08-12T11:53:55.546Z,427.50
2018-08-12T11:54:55.557Z,365.63
2018-08-12T11:55:55.569Z,376.88
2018-08-12T11:56:55.625Z,371.25
2018-08-12T11:57:55.588Z,371.25
2018-08-12T11:58:55.601Z,371.25
2018-08-12T11:59:55.609Z,376.88
2018-08-12T12:00:55.619Z,376.88
2018-08-12T12:01:55.630Z,360.00
2018-08-12T12:02:55.638Z,371.25
2018-08-12T12:03:55.651Z,275.63
2018-08-12T12:04:55.659Z,371.25
2018-08-12T12:05:55.668Z,365.63
2018-08-12T12:06:55.684Z,360.00
2018-08-12T12:07:55.691Z,348.75
2018-08-12T12:08:55.698Z,343.13
2018-08-12T12:09:55.707Z,343.13
2018-08-12T12:10:55.716Z,331.88
2018-08-12T12:11:55.726Z,331.88
2018-08-12T12:12:55.736Z,326.25
2018-08-12T12:13:55.747Z,326.25
2018-08-12T12:14:55.764Z,320.63
2018-08-12T12:15:55.766Z,315.00
2018-08-12T12:16:55.778Z,309.38
2018-08-12T12:17:55.784Z,309.38
2018-08-12T12:18:55.794Z,309.38
2018-08-12T12:19:55.804Z,303.75
2018-08-12T12:20:55.814Z,303.75
2018-08-12T12:21:55.821Z,303.75
2018-08-12T12:22:55.831Z,298.13
2018-08-12T12:23:55.840Z,286.88
2018-08-12T12:24:55.850Z,286.88
2018-08-12T12:25:55.869Z,286.88
2018-08-12T12:26:55.868Z,303.75
2018-08-12T12:27:55.877Z,303.75
2018-08-12T12:28:55.889Z,303.75
2018-08-12T12:29:55.895Z,303.75
2018-08-12T12:30:55.906Z,303.75
2018-08-12T12:31:55.917Z,298.13
2018-08-12T12:32:55.924Z,298.13
2018-08-12T12:33:55.933Z,298.13
2018-08-12T12:34:55.943Z,298.13
2018-08-12T12:35:55.954Z,292.50
2018-08-12T12:36:55.961Z,292.50
2018-08-12T12:37:55.970Z,292.50
2018-08-12T12:38:55.977Z,298.13
2018-08-12T12:39:55.987Z,292.50
2018-08-12T12:40:55.997Z,298.13
2018-08-12T12:41:56.008Z,303.75
2018-08-12T12:42:56.060Z,298.13
2018-08-12T12:43:56.023Z,292.50
2018-08-12T12:44:56.032Z,281.25